createdAt,value
2022-08-14T00:02:27.161Z,19.49
2022-08-14T00:04:54.967Z,19.51
2022-08-14T00:07:22.591Z,19.67
2022-08-14T00:10:01.976Z,19.68
2022-08-14T00:12:41.022Z,19.55
2022-08-14T00:15:17.193Z,19.46
2022-08-14T00:17:47.323Z,19.45
2022-08-14T00:20:24.101Z,19.28
2022-08-14T00:23:08.312Z,19.31
2022-08-14T00:25:42.321Z,19.36
2022-08-14T00:28:15.091Z,19.36
2022-08-14T00:30:43.601Z,19.32
2022-08-14T00:33:16.496Z,19.22
2022-08-14T00:36:35.753Z,19.15
2022-08-14T00:38:34.787Z,19.10
2022-08-14T00:41:07.131Z,19.27
2022-08-14T00:43:43.104Z,19.16
2022-08-14T00:46:32.677Z,19.30
2022-08-14T00:48:59.187Z,19.17
2022-08-14T00:51:34.446Z,19.34
2022-08-14T00:54:11.083Z,19.27
2022-08-14T00:56:55.336Z,19.12
2022-08-14T00:59:28.684Z,19.07
2022-08-14T01:01:59.630Z,19.11
2022-08-14T01:04:38.169Z,19.15
2022-08-14T01:07:20.922Z,19.11
2022-08-14T01:09:56.926Z,19.17
2022-08-14T01:12:29.822Z,19.28
2022-08-14T01:15:08.672Z,19.29
2022-08-14T01:17:55.609Z,19.20
2022-08-14T01:20:41.706Z,19.17
2022-08-14T01:23:16.408Z,19.28
2022-08-14T01:25:51.490Z,19.29
2022-08-14T01:28:46.938Z,19.27
2022-08-14T01:31:15.777Z,19.17
2022-08-14T01:34:00.058Z,19.04
2022-08-14T01:36:39.444Z,19.00
2022-08-14T01:39:12.560Z,18.88
2022-08-14T01:41:43.372Z,18.82
2022-08-14T01:44:32.370Z,18.91
2022-08-14T01:47:11.739Z,18.79
2022-08-14T01:49:46.024Z,18.93
2022-08-14T01:52:34.377Z,18.96
2022-08-14T01:55:15.814Z,18.93
2022-08-14T01:58:01.908Z,18.88
2022-08-14T02:00:36.149Z,18.92
2022-08-14T02:03:06.782Z,18.82
2022-08-14T02:05:38.297Z,18.79
2022-08-14T02:08:09.359Z,18.65
2022-08-14T02:10:46.643Z,18.65
2022-08-14T02:13:16.641Z,18.72
2022-08-14T02:15:45.745Z,18.54
2022-08-14T02:18:16.445Z,18.61
2022-08-14T02:20:47.667Z,18.59
2022-08-14T02:23:15.695Z,18.63
2022-08-14T02:25:54.657Z,18.53
2022-08-14T02:28:57.565Z,18.57
2022-08-14T02:31:14.961Z,18.40
2022-08-14T02:33:43.119Z,18.45
2022-08-14T02:36:46.001Z,18.43
2022-08-14T02:38:59.179Z,18.48
2022-08-14T02:41:28.811Z,18.41
2022-08-14T02:44:00.684Z,18.45
2022-08-14T02:46:32.481Z,18.35
2022-08-14T02:49:06.353Z,18.37
2022-08-14T02:51:36.607Z,18.44
2022-08-14T02:54:09.846Z,18.56
2022-08-14T02:57:15.251Z,18.52
2022-08-14T02:59:33.885Z,18.57
2022-08-14T03:02:03.167Z,18.56
2022-08-14T03:04:31.162Z,18.53
2022-08-14T03:07:07.851Z,18.42
2022-08-14T03:10:25.142Z,18.46
2022-08-14T03:12:31.720Z,18.51
2022-08-14T03:15:16.280Z,18.61
2022-08-14T03:17:57.008Z,18.56
2022-08-14T03:20:30.452Z,18.52
2022-08-14T03:23:02.995Z,18.64
2022-08-14T03:25:34.300Z,18.71
2022-08-14T03:28:07.362Z,18.67
2022-08-14T03:30:39.255Z,18.75
2022-08-14T03:33:12.264Z,18.71
2022-08-14T03:35:59.774Z,18.98
2022-08-14T03:39:13.949Z,18.83
2022-08-14T03:41:25.794Z,18.84
2022-08-14T03:45:25.706Z,18.85
2022-08-14T03:46:54.371Z,18.97
2022-08-14T03:49:28.486Z,19.06
2022-08-14T03:52:07.643Z,19.13
2022-08-14T03:54:46.372Z,19.13
2022-08-14T03:57:22.852Z,19.09
2022-08-14T03:59:51.190Z,19.33
2022-08-14T04:02:32.562Z,19.47
2022-08-14T04:05:12.159Z,19.48
2022-08-14T04:07:41.494Z,19.79
2022-08-14T04:10:32.039Z,19.77
2022-08-14T04:13:03.464Z,19.63
2022-08-14T04:15:52.829Z,19.51
2022-08-14T04:18:22.374Z,19.63
2022-08-14T04:20:54.555Z,19.72
2022-08-14T04:23:29.682Z,19.62
2022-08-14T04:26:08.204Z,19.75
2022-08-14T04:29:07.409Z,19.87
2022-08-14T04:32:59.927Z,19.65
2022-08-14T04:34:20.635Z,19.95
2022-08-14T04:37:21.954Z,20.03
2022-08-14T04:40:15.147Z,20.18
2022-08-14T04:43:01.579Z,20.25
2022-08-14T04:45:40.671Z,20.52
2022-08-14T04:48:13.090Z,20.59
2022-08-14T04:50:45.514Z,20.80
2022-08-14T04:53:26.449Z,20.90
2022-08-14T04:56:03.542Z,21.40
2022-08-14T04:58:35.436Z,21.37
2022-08-14T05:01:12.962Z,21.00
2022-08-14T05:03:47.468Z,21.09
2022-08-14T05:06:37.248Z,21.30
2022-08-14T05:09:02.088Z,21.21
2022-08-14T05:11:34.624Z,21.18
2022-08-14T05:14:34.305Z,21.35
2022-08-14T05:16:53.129Z,21.89
2022-08-14T05:19:27.211Z,23.21
2022-08-14T05:22:16.118Z,25.29
2022-08-14T05:24:50.511Z,28.53
2022-08-14T05:27:22.982Z,29.61
2022-08-14T05:29:55.101Z,31.03
2022-08-14T05:32:27.374Z,31.50
2022-08-14T05:34:58.453Z,30.57
2022-08-14T05:37:29.565Z,30.12
2022-08-14T05:39:58.421Z,32.62
2022-08-14T05:42:29.490Z,33.87
2022-08-14T05:45:00.233Z,34.05
2022-08-14T05:47:28.700Z,31.69
2022-08-14T05:50:02.435Z,33.78
2022-08-14T05:52:39.152Z,34.19
2022-08-14T05:55:09.550Z,34.43
2022-08-14T05:57:53.703Z,34.40
2022-08-14T06:00:24.990Z,32.58
2022-08-14T06:02:57.742Z,31.98
2022-08-14T06:05:28.543Z,29.73
2022-08-14T06:07:58.638Z,28.10
2022-08-14T06:10:28.771Z,27.12
2022-08-14T06:13:02.266Z,28.77
2022-08-14T06:15:30.532Z,30.14
2022-08-14T06:17:59.865Z,33.47
2022-08-14T06:20:28.650Z,35.27
2022-08-14T06:22:57.951Z,34.85
2022-08-14T06:25:26.925Z,36.98
2022-08-14T06:27:55.442Z,36.92
2022-08-14T06:30:30.066Z,36.81
2022-08-14T06:33:09.196Z,37.89
2022-08-14T06:35:36.569Z,38.28
2022-08-14T06:38:04.697Z,38.62
2022-08-14T06:40:42.819Z,40.09
2022-08-14T06:43:11.763Z,40.57
2022-08-14T06:45:44.187Z,38.75
2022-08-14T06:48:24.053Z,36.54
2022-08-14T06:50:53.960Z,38.27
2022-08-14T06:53:22.328Z,39.00
2022-08-14T06:56:00.699Z,40.25
2022-08-14T06:58:30.901Z,38.96
2022-08-14T07:01:23.419Z,38.70
2022-08-14T07:04:12.809Z,40.53
2022-08-14T07:06:50.081Z,40.48
2022-08-14T07:09:22.683Z,40.46
2022-08-14T07:11:52.016Z,38.03
2022-08-14T07:14:19.251Z,37.36
2022-08-14T07:16:46.448Z,36.60
2022-08-14T07:19:17.712Z,37.70
2022-08-14T07:21:48.357Z,37.48
2022-08-14T07:24:26.189Z,35.22
2022-08-14T07:26:58.889Z,36.43
2022-08-14T07:29:29.027Z,39.03
2022-08-14T07:31:56.641Z,39.89
2022-08-14T07:34:36.067Z,37.07
2022-08-14T07:37:05.853Z,36.91
2022-08-14T07:39:34.505Z,36.56
2022-08-14T07:42:02.531Z,36.05
2022-08-14T07:44:35.982Z,34.30
2022-08-14T07:47:16.673Z,35.13
2022-08-14T07:49:57.559Z,35.14
2022-08-14T07:52:30.475Z,33.62
2022-08-14T07:54:58.387Z,33.96
2022-08-14T07:57:27.559Z,33.76
2022-08-14T07:59:54.999Z,36.32
2022-08-14T08:02:22.976Z,35.88
2022-08-14T08:04:59.206Z,35.32
2022-08-14T08:07:30.662Z,36.29
2022-08-14T08:10:31.383Z,36.03
2022-08-14T08:13:24.490Z,35.93
2022-08-14T08:15:57.476Z,38.25
2022-08-14T08:18:28.890Z,39.14
2022-08-14T08:20:59.537Z,36.50
2022-08-14T08:23:34.411Z,36.45
2022-08-14T08:26:08.200Z,36.06
2022-08-14T08:28:35.800Z,37.88
2022-08-14T08:31:06.671Z,35.72
2022-08-14T08:33:37.173Z,36.25
2022-08-14T08:36:12.988Z,36.70
2022-08-14T08:39:16.877Z,35.83
2022-08-14T08:41:50.524Z,34.34
2022-08-14T08:44:32.222Z,33.65
2022-08-14T08:47:06.724Z,33.10
2022-08-14T08:49:48.302Z,31.67
2022-08-14T08:52:25.385Z,33.37
2022-08-14T08:54:56.405Z,34.60
2022-08-14T08:57:24.039Z,33.34
2022-08-14T08:59:55.367Z,33.76
2022-08-14T09:02:27.606Z,33.84
2022-08-14T09:05:02.475Z,33.92
2022-08-14T09:07:31.188Z,35.02
2022-08-14T09:10:00.351Z,34.60
2022-08-14T09:12:32.310Z,34.42
2022-08-14T09:15:11.499Z,34.68
2022-08-14T09:17:42.167Z,33.01
2022-08-14T09:20:12.752Z,34.13
2022-08-14T09:22:42.414Z,31.49
2022-08-14T09:25:15.091Z,31.61
2022-08-14T09:27:42.780Z,32.72
2022-08-14T09:30:31.486Z,33.21
2022-08-14T09:33:22.743Z,32.95
2022-08-14T09:36:03.311Z,31.09
2022-08-14T09:39:21.138Z,32.08
2022-08-14T09:42:33.244Z,32.59
2022-08-14T09:45:08.512Z,30.02
2022-08-14T09:47:46.044Z,30.15
2022-08-14T09:50:19.400Z,32.10
2022-08-14T09:52:54.881Z,31.04
2022-08-14T09:55:26.462Z,29.50
2022-08-14T09:58:19.250Z,29.25
2022-08-14T10:00:50.187Z,30.42
2022-08-14T10:03:30.375Z,29.87
2022-08-14T10:06:07.246Z,30.28
2022-08-14T10:08:45.074Z,29.58
2022-08-14T10:11:24.083Z,28.15
2022-08-14T10:13:56.018Z,27.19
2022-08-14T10:16:33.737Z,27.44
2022-08-14T10:19:04.863Z,28.00
2022-08-14T10:21:38.604Z,29.36
2022-08-14T10:24:09.040Z,30.34
2022-08-14T10:26:37.185Z,29.66
2022-08-14T10:29:19.500Z,29.32
2022-08-14T10:32:00.868Z,29.26
2022-08-14T10:34:36.811Z,29.20
2022-08-14T10:37:14.069Z,29.61
2022-08-14T10:39:51.418Z,29.51
2022-08-14T10:42:41.736Z,28.98
2022-08-14T10:45:42.144Z,29.45
2022-08-14T10:48:23.661Z,28.99
2022-08-14T10:51:08.449Z,28.69
2022-08-14T10:53:39.287Z,28.40
2022-08-14T10:56:22.113Z,27.63
2022-08-14T10:59:08.311Z,28.37
2022-08-14T11:02:00.374Z,27.55
2022-08-14T11:04:30.296Z,28.27
2022-08-14T11:06:58.539Z,28.99
2022-08-14T11:09:31.474Z,28.53
2022-08-14T11:12:40.135Z,27.98
2022-08-14T11:14:59.321Z,27.64
2022-08-14T11:17:31.868Z,26.87
2022-08-14T11:20:01.755Z,26.77
2022-08-14T11:22:56.705Z,26.19
2022-08-14T11:25:20.514Z,26.13
2022-08-14T11:27:50.580Z,25.57
2022-08-14T11:30:50.486Z,25.39
2022-08-14T11:33:09.075Z,25.18
2022-08-14T11:35:47.364Z,25.20
2022-08-14T11:38:17.122Z,25.01
2022-08-14T11:40:46.753Z,24.98
2022-08-14T11:43:15.397Z,24.90
2022-08-14T11:45:48.346Z,24.65
2022-08-14T11:49:01.842Z,24.34
2022-08-14T11:51:14.648Z,24.38
2022-08-14T11:53:51.487Z,24.50
2022-08-14T11:56:18.956Z,24.24
2022-08-14T11:58:54.503Z,24.26
2022-08-14T12:01:31.282Z,24.28
2022-08-14T12:04:32.291Z,24.35
2022-08-14T12:07:01.712Z,24.05
2022-08-14T12:09:29.941Z,24.11
2022-08-14T12:11:57.340Z,24.31
2022-08-14T12:14:30.626Z,24.37
2022-08-14T12:17:11.946Z,24.45
2022-08-14T12:19:51.113Z,24.45
2022-08-14T12:22:44.058Z,24.47
2022-08-14T12:25:20.218Z,24.52
2022-08-14T12:27:53.498Z,24.52
2022-08-14T12:30:42.817Z,24.42
2022-08-14T12:33:30.544Z,24.74
2022-08-14T12:36:05.482Z,24.95
2022-08-14T12:38:45.763Z,24.51
2022-08-14T12:41:20.982Z,24.68
2022-08-14T12:43:56.624Z,24.68
2022-08-14T12:46:37.881Z,24.59
2022-08-14T12:49:18.939Z,24.50
2022-08-14T12:51:57.822Z,24.34
2022-08-14T12:54:28.572Z,24.33
2022-08-14T12:57:05.732Z,24.28
2022-08-14T12:59:37.215Z,24.11
2022-08-14T13:02:36.802Z,23.95
2022-08-14T13:05:04.608Z,23.98
2022-08-14T13:07:38.698Z,24.16
2022-08-14T13:10:51.408Z,24.09
2022-08-14T13:13:13.537Z,24.12
2022-08-14T13:15:45.772Z,24.21
2022-08-14T13:18:17.125Z,24.14
2022-08-14T13:20:49.462Z,24.30
2022-08-14T13:23:30.619Z,24.28
2022-08-14T13:26:00.946Z,24.42
2022-08-14T13:28:32.629Z,24.57
2022-08-14T13:31:11.264Z,24.41
2022-08-14T13:33:41.078Z,24.25
2022-08-14T13:36:11.046Z,24.17
2022-08-14T13:38:53.744Z,24.19
2022-08-14T13:41:28.004Z,24.16
2022-08-14T13:44:00.717Z,24.02
2022-08-14T13:46:29.180Z,24.05
2022-08-14T13:48:59.661Z,24.13
2022-08-14T13:51:32.993Z,24.31
2022-08-14T13:54:10.486Z,24.26
2022-08-14T13:56:40.566Z,24.12
2022-08-14T13:59:08.810Z,24.22
2022-08-14T14:01:43.942Z,24.25
2022-08-14T14:04:19.229Z,24.34
2022-08-14T14:06:50.978Z,24.36
2022-08-14T14:09:32.439Z,24.33
2022-08-14T14:12:37.510Z,24.47
2022-08-14T14:14:56.592Z,24.41
2022-08-14T14:17:25.309Z,24.21
2022-08-14T14:19:56.438Z,24.34
2022-08-14T14:22:34.307Z,24.57
2022-08-14T14:25:19.363Z,24.58
2022-08-14T14:27:53.283Z,24.63
2022-08-14T14:30:51.916Z,24.71
2022-08-14T14:33:44.152Z,24.68
2022-08-14T14:36:01.772Z,24.50
2022-08-14T14:38:33.663Z,24.42
2022-08-14T14:41:03.719Z,24.67
2022-08-14T14:43:39.024Z,24.52
2022-08-14T14:46:09.266Z,24.65
2022-08-14T14:48:46.765Z,24.81
2022-08-14T14:51:22.240Z,25.09
2022-08-14T14:53:49.918Z,25.09
2022-08-14T14:56:50.997Z,24.97
2022-08-14T14:59:06.207Z,24.99
2022-08-14T15:01:36.091Z,25.06
2022-08-14T15:04:07.939Z,24.95
2022-08-14T15:06:48.056Z,24.96
2022-08-14T15:09:17.877Z,24.81
2022-08-14T15:11:47.040Z,24.68
2022-08-14T15:14:55.988Z,24.61
2022-08-14T15:17:02.809Z,24.60
2022-08-14T15:19:32.061Z,24.74
2022-08-14T15:21:59.494Z,24.69
2022-08-14T15:24:27.231Z,24.68
2022-08-14T15:26:58.681Z,24.64
2022-08-14T15:29:27.667Z,24.65
2022-08-14T15:31:55.085Z,24.74
2022-08-14T15:34:43.571Z,24.75
2022-08-14T15:37:14.858Z,24.81
2022-08-14T15:39:44.553Z,24.78
2022-08-14T15:42:16.198Z,24.64
2022-08-14T15:44:58.498Z,24.77
2022-08-14T15:47:31.771Z,24.76
2022-08-14T15:50:01.550Z,24.83
2022-08-14T15:52:34.865Z,24.72
2022-08-14T15:55:06.762Z,24.83
2022-08-14T15:57:36.153Z,24.97
2022-08-14T16:00:43.255Z,25.10
2022-08-14T16:03:14.200Z,25.07
2022-08-14T16:05:46.011Z,25.09
2022-08-14T16:08:26.955Z,24.97
2022-08-14T16:10:59.932Z,25.08
2022-08-14T16:13:43.055Z,24.93
2022-08-14T16:16:34.802Z,25.09
2022-08-14T16:19:11.117Z,25.08
2022-08-14T16:21:40.884Z,25.20
2022-08-14T16:24:33.431Z,25.10
2022-08-14T16:27:03.558Z,25.25
2022-08-14T16:29:40.060Z,25.12
2022-08-14T16:32:33.203Z,25.22
2022-08-14T16:34:58.319Z,25.45
2022-08-14T16:37:30.830Z,25.34
2022-08-14T16:40:03.542Z,25.38
2022-08-14T16:42:38.710Z,25.41
2022-08-14T16:45:25.904Z,25.22
2022-08-14T16:47:53.502Z,25.21
2022-08-14T16:50:40.429Z,25.06
2022-08-14T16:53:09.681Z,24.99
2022-08-14T16:55:53.149Z,24.91
2022-08-14T16:58:29.844Z,24.49
2022-08-14T17:01:22.858Z,24.39
2022-08-14T17:03:58.202Z,23.97
2022-08-14T17:06:38.500Z,23.78
2022-08-14T17:09:27.734Z,23.18
2022-08-14T17:11:59.995Z,23.12
2022-08-14T17:15:10.065Z,23.37
2022-08-14T17:17:40.914Z,23.32
2022-08-14T17:20:53.729Z,23.14
2022-08-14T17:23:00.062Z,22.91
2022-08-14T17:25:31.332Z,22.75
2022-08-14T17:28:50.226Z,22.85
2022-08-14T17:31:04.441Z,22.90
2022-08-14T17:33:40.711Z,22.84
2022-08-14T17:36:31.287Z,22.66
2022-08-14T17:39:20.518Z,22.61
2022-08-14T17:42:01.695Z,22.37
2022-08-14T17:44:45.386Z,22.26
2022-08-14T17:47:18.613Z,22.18
2022-08-14T17:49:52.112Z,22.29
2022-08-14T17:52:36.303Z,22.28
2022-08-14T17:56:01.815Z,22.36
2022-08-14T17:58:20.971Z,22.21
2022-08-14T18:00:52.341Z,21.95
2022-08-14T18:03:50.020Z,21.84
2022-08-14T18:06:39.592Z,21.87
2022-08-14T18:08:58.950Z,21.85
2022-08-14T18:11:27.324Z,21.67
2022-08-14T18:14:31.521Z,21.74
2022-08-14T18:17:01.587Z,21.74
2022-08-14T18:19:31.675Z,21.58
2022-08-14T18:22:05.749Z,21.60
2022-08-14T18:24:58.558Z,21.59
2022-08-14T18:27:57.896Z,21.54
2022-08-14T18:30:40.040Z,21.48
2022-08-14T18:33:28.446Z,21.42
2022-08-14T18:36:48.313Z,21.38
2022-08-14T18:40:01.831Z,21.44
2022-08-14T18:42:37.401Z,21.39
2022-08-14T18:45:41.321Z,21.42
2022-08-14T18:48:33.549Z,21.37
2022-08-14T18:51:45.208Z,21.40
2022-08-14T18:54:40.898Z,21.37
2022-08-14T18:57:23.830Z,21.38
2022-08-14T19:00:05.177Z,21.34
2022-08-14T19:02:47.145Z,21.26
2022-08-14T19:06:16.896Z,21.25
2022-08-14T19:09:56.242Z,21.25
2022-08-14T19:12:53.051Z,21.26
2022-08-14T19:15:33.447Z,21.23
2022-08-14T19:18:38.412Z,21.22
2022-08-14T19:21:35.107Z,21.17
2022-08-14T19:24:50.378Z,21.12
2022-08-14T19:27:47.675Z,21.09
2022-08-14T19:30:25.752Z,21.13
2022-08-14T19:33:36.312Z,21.06
2022-08-14T19:36:29.090Z,21.08
2022-08-14T19:39:20.350Z,21.08
2022-08-14T19:41:59.487Z,21.02
2022-08-14T19:44:40.405Z,21.07
2022-08-14T19:47:44.763Z,21.07
2022-08-14T19:50:44.312Z,21.10
2022-08-14T19:53:20.088Z,21.09
2022-08-14T19:56:05.295Z,21.08
2022-08-14T19:58:55.116Z,21.05
2022-08-14T20:01:57.120Z,21.00
2022-08-14T20:04:57.334Z,20.89
2022-08-14T20:08:00.688Z,20.86
2022-08-14T20:11:06.335Z,20.86
2022-08-14T20:13:49.469Z,20.93
2022-08-14T20:16:44.084Z,20.94
2022-08-14T20:19:43.037Z,20.91
2022-08-14T20:22:36.886Z,20.87
2022-08-14T20:25:20.460Z,20.89
2022-08-14T20:28:30.384Z,20.78
2022-08-14T20:31:25.488Z,20.84
2022-08-14T20:34:25.132Z,20.82
2022-08-14T20:37:22.308Z,20.82
2022-08-14T20:39:59.426Z,20.80
2022-08-14T20:42:56.002Z,20.74
2022-08-14T20:45:50.146Z,20.75
2022-08-14T20:48:51.244Z,20.71
2022-08-14T20:51:36.761Z,20.67
2022-08-14T20:54:18.296Z,20.57
2022-08-14T20:56:49.110Z,20.49
2022-08-14T20:59:24.096Z,20.53
2022-08-14T21:02:00.018Z,20.50
2022-08-14T21:04:34.982Z,20.56
2022-08-14T21:07:36.266Z,20.57
2022-08-14T21:10:44.391Z,20.62
2022-08-14T21:16:32.918Z,20.60
2022-08-14T21:22:02.861Z,20.46
2022-08-14T21:24:47.069Z,20.42
2022-08-14T21:27:37.259Z,20.37
2022-08-14T21:30:51.498Z,20.35
2022-08-14T21:33:25.352Z,20.39
2022-08-14T21:36:08.361Z,20.55
2022-08-14T21:38:49.352Z,20.82
2022-08-14T21:41:41.290Z,20.80
2022-08-14T21:44:23.340Z,20.80
2022-08-14T21:47:18.370Z,20.72
2022-08-14T21:50:47.466Z,20.89
2022-08-14T21:53:07.604Z,21.17
2022-08-14T21:55:49.373Z,20.98
2022-08-14T21:58:54.693Z,20.92
2022-08-14T22:01:21.716Z,20.80
2022-08-14T22:03:55.120Z,20.74
2022-08-14T22:06:28.664Z,20.86
2022-08-14T22:08:58.343Z,20.74
2022-08-14T22:11:27.439Z,20.73
2022-08-14T22:13:56.440Z,20.51
2022-08-14T22:17:02.107Z,20.70
2022-08-14T22:19:20.742Z,20.67
2022-08-14T22:21:51.005Z,20.55
2022-08-14T22:24:38.215Z,20.49
2022-08-14T22:27:10.338Z,20.46
2022-08-14T22:29:39.132Z,20.42
2022-08-14T22:32:07.474Z,20.27
2022-08-14T22:34:36.158Z,20.32
2022-08-14T22:37:08.546Z,20.36
2022-08-14T22:40:17.839Z,20.32
2022-08-14T22:42:25.315Z,20.32
2022-08-14T22:44:56.475Z,20.23
2022-08-14T22:47:24.815Z,20.25
2022-08-14T22:50:32.508Z,20.26
2022-08-14T22:52:41.281Z,20.26
2022-08-14T22:55:17.594Z,20.29
2022-08-14T22:57:45.074Z,20.17
2022-08-14T23:00:25.590Z,20.19
2022-08-14T23:03:01.492Z,20.12
2022-08-14T23:05:34.183Z,20.10
2022-08-14T23:09:00.091Z,20.11
2022-08-14T23:10:59.769Z,20.25
2022-08-14T23:13:27.468Z,20.33
2022-08-14T23:16:01.659Z,20.13
2022-08-14T23:18:29.414Z,20.06
2022-08-14T23:20:57.598Z,20.09
2022-08-14T23:23:24.947Z,20.13
2022-08-14T23:25:58.575Z,20.22
2022-08-14T23:28:34.282Z,20.12
2022-08-14T23:31:34.224Z,20.09
2022-08-14T23:34:06.876Z,20.11
2022-08-14T23:36:53.252Z,20.17
2022-08-14T23:39:33.179Z,20.06
2022-08-14T23:42:07.624Z,20.04
2022-08-14T23:44:37.867Z,19.94
2022-08-14T23:47:10.870Z,20.11
2022-08-14T23:50:01.013Z,20.09
2022-08-14T23:53:04.077Z,20.12
2022-08-14T23:55:16.344Z,20.08
2022-08-14T23:57:57.751Z,20.17
